sensor_id;sensor_type;location;lat;lon;timestamp;P1;durP1;ratioP1;P2;durP2;ratioP2
9445;SDS011;4761;49.490;10.908;2022-08-07T00:01:32;2.90;;;2.22;;
9445;SDS011;4761;49.490;10.908;2022-08-07T00:03:58;2.45;;;2.25;;
9445;SDS011;4761;49.490;10.908;2022-08-07T00:06:24;4.53;;;2.70;;
9445;SDS011;4761;49.490;10.908;2022-08-07T00:08:50;3.08;;;2.30;;
9445;SDS011;4761;49.490;10.908;2022-08-07T00:11:15;2.78;;;2.40;;
9445;SDS011;4761;49.490;10.908;2022-08-07T00:13:41;4.28;;;2.78;;
9445;SDS011;4761;49.490;10.908;2022-08-07T00:16:08;4.05;;;2.22;;
9445;SDS011;4761;49.490;10.908;2022-08-07T00:18:34;2.92;;;2.35;;
9445;SDS011;4761;49.490;10.908;2022-08-07T00:21:03;3.33;;;2.65;;
9445;SDS011;4761;49.490;10.908;2022-08-07T00:23:31;4.13;;;2.53;;
9445;SDS011;4761;49.490;10.908;2022-08-07T00:25:58;3.58;;;2.92;;
9445;SDS011;4761;49.490;10.908;2022-08-07T00:28:25;4.70;;;2.92;;
9445;SDS011;4761;49.490;10.908;2022-08-07T00:30:51;2.92;;;2.58;;
9445;SDS011;4761;49.490;10.908;2022-08-07T00:33:17;2.70;;;2.30;;
9445;SDS011;4761;49.490;10.908;2022-08-07T00:35:42;3.33;;;2.42;;
9445;SDS011;4761;49.490;10.908;2022-08-07T00:38:08;4.78;;;2.70;;
9445;SDS011;4761;49.490;10.908;2022-08-07T00:40:33;3.08;;;2.50;;
9445;SDS011;4761;49.490;10.908;2022-08-07T00:42:59;3.25;;;2.10;;
9445;SDS011;4761;49.490;10.908;2022-08-07T00:45:25;3.08;;;2.70;;
9445;SDS011;4761;49.490;10.908;2022-08-07T00:47:51;4.60;;;2.38;;
9445;SDS011;4761;49.490;10.908;2022-08-07T00:50:17;2.60;;;2.38;;
9445;SDS011;4761;49.490;10.908;2022-08-07T00:52:42;3.65;;;2.35;;
9445;SDS011;4761;49.490;10.908;2022-08-07T00:55:08;2.78;;;2.17;;
9445;SDS011;4761;49.490;10.908;2022-08-07T00:57:34;3.08;;;2.38;;
9445;SDS011;4761;49.490;10.908;2022-08-07T01:00:02;4.05;;;2.20;;
9445;SDS011;4761;49.490;10.908;2022-08-07T01:02:29;3.25;;;2.28;;
9445;SDS011;4761;49.490;10.908;2022-08-07T01:04:55;2.17;;;1.70;;
9445;SDS011;4761;49.490;10.908;2022-08-07T01:07:22;2.50;;;2.00;;
9445;SDS011;4761;49.490;10.908;2022-08-07T01:09:48;2.83;;;1.90;;
9445;SDS011;4761;49.490;10.908;2022-08-07T01:12:14;2.50;;;1.80;;
9445;SDS011;4761;49.490;10.908;2022-08-07T01:14:40;2.20;;;1.70;;
9445;SDS011;4761;49.490;10.908;2022-08-07T01:17:07;1.90;;;1.70;;
9445;SDS011;4761;49.490;10.908;2022-08-07T01:19:33;1.85;;;1.60;;
9445;SDS011;4761;49.490;10.908;2022-08-07T01:22:00;3.00;;;1.90;;
9445;SDS011;4761;49.490;10.908;2022-08-07T01:24:27;2.00;;;1.60;;
9445;SDS011;4761;49.490;10.908;2022-08-07T01:26:53;2.00;;;1.70;;
9445;SDS011;4761;49.490;10.908;2022-08-07T01:29:22;1.45;;;1.30;;
9445;SDS011;4761;49.490;10.908;2022-08-07T01:31:49;1.98;;;1.60;;
9445;SDS011;4761;49.490;10.908;2022-08-07T01:34:16;1.60;;;1.42;;
9445;SDS011;4761;49.490;10.908;2022-08-07T01:36:42;2.20;;;1.67;;
9445;SDS011;4761;49.490;10.908;2022-08-07T01:39:08;1.80;;;1.38;;
9445;SDS011;4761;49.490;10.908;2022-08-07T01:41:33;2.80;;;1.73;;
9445;SDS011;4761;49.490;10.908;2022-08-07T01:43:59;2.05;;;1.50;;
9445;SDS011;4761;49.490;10.908;2022-08-07T01:46:26;1.98;;;1.60;;
9445;SDS011;4761;49.490;10.908;2022-08-07T01:48:52;2.13;;;1.67;;
9445;SDS011;4761;49.490;10.908;2022-08-07T01:51:18;1.55;;;1.45;;
9445;SDS011;4761;49.490;10.908;2022-08-07T01:53:48;1.63;;;1.38;;
9445;SDS011;4761;49.490;10.908;2022-08-07T01:56:26;1.40;;;1.27;;
9445;SDS011;4761;49.490;10.908;2022-08-07T01:59:14;1.48;;;1.33;;
9445;SDS011;4761;49.490;10.908;2022-08-07T02:01:52;1.50;;;1.30;;
9445;SDS011;4761;49.490;10.908;2022-08-07T02:04:26;1.50;;;1.20;;
9445;SDS011;4761;49.490;10.908;2022-08-07T02:06:56;2.35;;;1.38;;
9445;SDS011;4761;49.490;10.908;2022-08-07T02:09:25;1.60;;;1.20;;
9445;SDS011;4761;49.490;10.908;2022-08-07T02:11:52;3.42;;;1.10;;
9445;SDS011;4761;49.490;10.908;2022-08-07T02:14:20;1.88;;;1.30;;
9445;SDS011;4761;49.490;10.908;2022-08-07T02:16:48;2.00;;;1.10;;
9445;SDS011;4761;49.490;10.908;2022-08-07T02:19:16;1.98;;;1.40;;
9445;SDS011;4761;49.490;10.908;2022-08-07T02:21:42;1.35;;;1.25;;
9445;SDS011;4761;49.490;10.908;2022-08-07T02:24:09;1.25;;;1.15;;
9445;SDS011;4761;49.490;10.908;2022-08-07T02:26:37;0.93;;;0.93;;
9445;SDS011;4761;49.490;10.908;2022-08-07T02:29:05;1.33;;;1.00;;
9445;SDS011;4761;49.490;10.908;2022-08-07T02:31:32;2.35;;;1.00;;
9445;SDS011;4761;49.490;10.908;2022-08-07T02:34:00;1.42;;;1.02;;
9445;SDS011;4761;49.490;10.908;2022-08-07T02:36:28;1.15;;;0.90;;
9445;SDS011;4761;49.490;10.908;2022-08-07T02:38:54;1.02;;;0.98;;
9445;SDS011;4761;49.490;10.908;2022-08-07T02:41:21;1.05;;;0.95;;
9445;SDS011;4761;49.490;10.908;2022-08-07T02:43:48;1.50;;;0.90;;
9445;SDS011;4761;49.490;10.908;2022-08-07T02:46:15;1.15;;;1.00;;
9445;SDS011;4761;49.490;10.908;2022-08-07T02:48:43;1.42;;;1.10;;
9445;SDS011;4761;49.490;10.908;2022-08-07T02:51:10;0.82;;;0.80;;
9445;SDS011;4761;49.490;10.908;2022-08-07T02:53:39;1.08;;;0.98;;
9445;SDS011;4761;49.490;10.908;2022-08-07T02:56:07;1.67;;;0.93;;
9445;SDS011;4761;49.490;10.908;2022-08-07T02:58:37;1.08;;;0.90;;
9445;SDS011;4761;49.490;10.908;2022-08-07T03:01:04;1.10;;;0.90;;
9445;SDS011;4761;49.490;10.908;2022-08-07T03:03:31;0.80;;;0.80;;
9445;SDS011;4761;49.490;10.908;2022-08-07T03:05:58;1.30;;;0.80;;
9445;SDS011;4761;49.490;10.908;2022-08-07T03:08:25;1.20;;;0.88;;
9445;SDS011;4761;49.490;10.908;2022-08-07T03:10:51;1.00;;;0.80;;
9445;SDS011;4761;49.490;10.908;2022-08-07T03:13:19;1.98;;;1.00;;
9445;SDS011;4761;49.490;10.908;2022-08-07T03:15:44;1.42;;;0.90;;
9445;SDS011;4761;49.490;10.908;2022-08-07T03:18:11;1.40;;;0.90;;
9445;SDS011;4761;49.490;10.908;2022-08-07T03:20:37;1.17;;;0.80;;
9445;SDS011;4761;49.490;10.908;2022-08-07T03:23:04;0.80;;;0.80;;
9445;SDS011;4761;49.490;10.908;2022-08-07T03:25:33;1.05;;;0.70;;
9445;SDS011;4761;49.490;10.908;2022-08-07T03:28:01;0.98;;;0.85;;
9445;SDS011;4761;49.490;10.908;2022-08-07T03:30:30;0.93;;;0.70;;
9445;SDS011;4761;49.490;10.908;2022-08-07T03:32:57;0.77;;;0.77;;
9445;SDS011;4761;49.490;10.908;2022-08-07T03:35:26;1.15;;;0.77;;
9445;SDS011;4761;49.490;10.908;2022-08-07T03:37:56;1.92;;;0.70;;
9445;SDS011;4761;49.490;10.908;2022-08-07T03:40:26;0.82;;;0.80;;
9445;SDS011;4761;49.490;10.908;2022-08-07T03:42:52;0.90;;;0.80;;
9445;SDS011;4761;49.490;10.908;2022-08-07T03:45:19;1.67;;;0.73;;
9445;SDS011;4761;49.490;10.908;2022-08-07T03:47:46;0.98;;;0.73;;
9445;SDS011;4761;49.490;10.908;2022-08-07T03:50:12;1.33;;;0.90;;
9445;SDS011;4761;49.490;10.908;2022-08-07T03:52:38;0.70;;;0.70;;
9445;SDS011;4761;49.490;10.908;2022-08-07T03:55:05;0.80;;;0.70;;
9445;SDS011;4761;49.490;10.908;2022-08-07T03:57:31;0.90;;;0.70;;
9445;SDS011;4761;49.490;10.908;2022-08-07T03:59:57;1.10;;;0.77;;
9445;SDS011;4761;49.490;10.908;2022-08-07T04:02:23;1.02;;;0.80;;
9445;SDS011;4761;49.490;10.908;2022-08-07T04:04:50;0.75;;;0.73;;
9445;SDS011;4761;49.490;10.908;2022-08-07T04:07:16;0.93;;;0.80;;
9445;SDS011;4761;49.490;10.908;2022-08-07T04:09:43;0.80;;;0.70;;
9445;SDS011;4761;49.490;10.908;2022-08-07T04:12:10;0.90;;;0.70;;
9445;SDS011;4761;49.490;10.908;2022-08-07T04:14:37;0.73;;;0.70;;
9445;SDS011;4761;49.490;10.908;2022-08-07T04:17:03;0.77;;;0.60;;
9445;SDS011;4761;49.490;10.908;2022-08-07T04:19:29;0.85;;;0.68;;
9445;SDS011;4761;49.490;10.908;2022-08-07T04:21:54;1.17;;;0.77;;
9445;SDS011;4761;49.490;10.908;2022-08-07T04:24:21;1.10;;;0.80;;
9445;SDS011;4761;49.490;10.908;2022-08-07T04:26:47;0.82;;;0.80;;
9445;SDS011;4761;49.490;10.908;2022-08-07T04:29:13;0.70;;;0.70;;
9445;SDS011;4761;49.490;10.908;2022-08-07T04:31:39;1.20;;;0.73;;
9445;SDS011;4761;49.490;10.908;2022-08-07T04:34:05;0.85;;;0.75;;
9445;SDS011;4761;49.490;10.908;2022-08-07T04:36:32;0.60;;;0.60;;
9445;SDS011;4761;49.490;10.908;2022-08-07T04:38:58;0.82;;;0.80;;
9445;SDS011;4761;49.490;10.908;2022-08-07T04:41:25;0.70;;;0.70;;
9445;SDS011;4761;49.490;10.908;2022-08-07T04:43:50;0.63;;;0.60;;
9445;SDS011;4761;49.490;10.908;2022-08-07T04:49:09;0.60;;;0.60;;
9445;SDS011;4761;49.490;10.908;2022-08-07T04:52:01;1.13;;;0.70;;
9445;SDS011;4761;49.490;10.908;2022-08-07T04:54:35;0.60;;;0.60;;
9445;SDS011;4761;49.490;10.908;2022-08-07T05:00:05;0.40;;;0.40;;
9445;SDS011;4761;49.490;10.908;2022-08-07T05:02:43;1.02;;;0.55;;
9445;SDS011;4761;49.490;10.908;2022-08-07T05:06:21;0.50;;;0.50;;
9445;SDS011;4761;49.490;10.908;2022-08-07T05:08:22;0.98;;;0.63;;
9445;SDS011;4761;49.490;10.908;2022-08-07T05:10:51;0.80;;;0.65;;
9445;SDS011;4761;49.490;10.908;2022-08-07T05:13:31;0.75;;;0.70;;
9445;SDS011;4761;49.490;10.908;2022-08-07T05:16:06;0.63;;;0.60;;
9445;SDS011;4761;49.490;10.908;2022-08-07T05:18:35;0.60;;;0.60;;
9445;SDS011;4761;49.490;10.908;2022-08-07T05:21:06;0.50;;;0.50;;
9445;SDS011;4761;49.490;10.908;2022-08-07T05:23:37;1.27;;;0.65;;
9445;SDS011;4761;49.490;10.908;2022-08-07T05:26:07;1.25;;;0.60;;
9445;SDS011;4761;49.490;10.908;2022-08-07T05:28:37;0.70;;;0.70;;
9445;SDS011;4761;49.490;10.908;2022-08-07T05:31:04;0.50;;;0.50;;
9445;SDS011;4761;49.490;10.908;2022-08-07T05:33:31;0.52;;;0.52;;
9445;SDS011;4761;49.490;10.908;2022-08-07T05:35:59;0.80;;;0.80;;
9445;SDS011;4761;49.490;10.908;2022-08-07T05:38:25;0.73;;;0.60;;
9445;SDS011;4761;49.490;10.908;2022-08-07T05:40:52;2.08;;;0.60;;
9445;SDS011;4761;49.490;10.908;2022-08-07T05:43:18;0.60;;;0.60;;
9445;SDS011;4761;49.490;10.908;2022-08-07T05:45:44;0.70;;;0.70;;
9445;SDS011;4761;49.490;10.908;2022-08-07T05:48:12;1.05;;;0.60;;
9445;SDS011;4761;49.490;10.908;2022-08-07T05:50:38;0.50;;;0.50;;
9445;SDS011;4761;49.490;10.908;2022-08-07T05:53:05;0.50;;;0.50;;
9445;SDS011;4761;49.490;10.908;2022-08-07T05:55:32;0.80;;;0.65;;
9445;SDS011;4761;49.490;10.908;2022-08-07T05:57:59;0.60;;;0.60;;
9445;SDS011;4761;49.490;10.908;2022-08-07T06:00:27;0.70;;;0.70;;
9445;SDS011;4761;49.490;10.908;2022-08-07T06:02:54;0.73;;;0.60;;
9445;SDS011;4761;49.490;10.908;2022-08-07T06:05:22;0.70;;;0.70;;
9445;SDS011;4761;49.490;10.908;2022-08-07T06:07:52;0.70;;;0.70;;
9445;SDS011;4761;49.490;10.908;2022-08-07T06:10:18;0.70;;;0.70;;
9445;SDS011;4761;49.490;10.908;2022-08-07T06:12:44;0.55;;;0.55;;
9445;SDS011;4761;49.490;10.908;2022-08-07T06:15:11;0.60;;;0.60;;
9445;SDS011;4761;49.490;10.908;2022-08-07T06:17:39;1.00;;;0.60;;
9445;SDS011;4761;49.490;10.908;2022-08-07T06:20:06;0.77;;;0.63;;
9445;SDS011;4761;49.490;10.908;2022-08-07T06:22:33;0.95;;;0.70;;
9445;SDS011;4761;49.490;10.908;2022-08-07T06:25:00;0.65;;;0.65;;
9445;SDS011;4761;49.490;10.908;2022-08-07T06:27:26;0.70;;;0.68;;
9445;SDS011;4761;49.490;10.908;2022-08-07T06:29:52;2.42;;;0.70;;
9445;SDS011;4761;49.490;10.908;2022-08-07T06:32:18;0.75;;;0.65;;
9445;SDS011;4761;49.490;10.908;2022-08-07T06:34:43;0.80;;;0.80;;
9445;SDS011;4761;49.490;10.908;2022-08-07T06:37:09;0.55;;;0.55;;
9445;SDS011;4761;49.490;10.908;2022-08-07T06:39:34;0.70;;;0.60;;
9445;SDS011;4761;49.490;10.908;2022-08-07T06:44:48;0.88;;;0.80;;
9445;SDS011;4761;49.490;10.908;2022-08-07T06:47:28;0.60;;;0.52;;
9445;SDS011;4761;49.490;10.908;2022-08-07T06:49:54;0.75;;;0.68;;
9445;SDS011;4761;49.490;10.908;2022-08-07T06:52:20;0.70;;;0.70;;
9445;SDS011;4761;49.490;10.908;2022-08-07T06:54:47;0.70;;;0.70;;
9445;SDS011;4761;49.490;10.908;2022-08-07T06:57:14;0.50;;;0.50;;
9445;SDS011;4761;49.490;10.908;2022-08-07T06:59:42;0.75;;;0.75;;
9445;SDS011;4761;49.490;10.908;2022-08-07T07:02:19;0.88;;;0.80;;
9445;SDS011;4761;49.490;10.908;2022-08-07T07:04:46;0.80;;;0.70;;
9445;SDS011;4761;49.490;10.908;2022-08-07T07:07:12;0.63;;;0.63;;
9445;SDS011;4761;49.490;10.908;2022-08-07T07:09:46;0.90;;;0.80;;
9445;SDS011;4761;49.490;10.908;2022-08-07T07:15:15;0.88;;;0.68;;
9445;SDS011;4761;49.490;10.908;2022-08-07T07:20:28;0.70;;;0.63;;
9445;SDS011;4761;49.490;10.908;2022-08-07T07:22:58;0.85;;;0.60;;
9445;SDS011;4761;49.490;10.908;2022-08-07T07:25:25;0.80;;;0.80;;
9445;SDS011;4761;49.490;10.908;2022-08-07T07:27:53;0.70;;;0.70;;
9445;SDS011;4761;49.490;10.908;2022-08-07T07:30:23;1.17;;;0.80;;
9445;SDS011;4761;49.490;10.908;2022-08-07T07:32:54;0.90;;;0.60;;
9445;SDS011;4761;49.490;10.908;2022-08-07T07:35:23;0.68;;;0.68;;
9445;SDS011;4761;49.490;10.908;2022-08-07T07:37:50;1.10;;;0.68;;
9445;SDS011;4761;49.490;10.908;2022-08-07T07:40:17;0.82;;;0.80;;
9445;SDS011;4761;49.490;10.908;2022-08-07T07:42:45;0.85;;;0.70;;
9445;SDS011;4761;49.490;10.908;2022-08-07T07:45:14;1.98;;;0.77;;
9445;SDS011;4761;49.490;10.908;2022-08-07T07:47:42;0.88;;;0.82;;
9445;SDS011;4761;49.490;10.908;2022-08-07T07:50:09;1.13;;;0.80;;
9445;SDS011;4761;49.490;10.908;2022-08-07T07:52:36;0.70;;;0.60;;
9445;SDS011;4761;49.490;10.908;2022-08-07T07:55:03;0.75;;;0.70;;
9445;SDS011;4761;49.490;10.908;2022-08-07T07:57:30;1.13;;;0.65;;
9445;SDS011;4761;49.490;10.908;2022-08-07T07:59:59;1.42;;;1.00;;
9445;SDS011;4761;49.490;10.908;2022-08-07T08:02:26;0.82;;;0.73;;
9445;SDS011;4761;49.490;10.908;2022-08-07T08:04:54;0.70;;;0.70;;
9445;SDS011;4761;49.490;10.908;2022-08-07T08:07:20;0.80;;;0.75;;
9445;SDS011;4761;49.490;10.908;2022-08-07T08:09:48;1.48;;;0.75;;
9445;SDS011;4761;49.490;10.908;2022-08-07T08:12:16;0.73;;;0.73;;
9445;SDS011;4761;49.490;10.908;2022-08-07T08:14:42;0.90;;;0.70;;
9445;SDS011;4761;49.490;10.908;2022-08-07T08:17:09;0.73;;;0.70;;
9445;SDS011;4761;49.490;10.908;2022-08-07T08:19:36;0.60;;;0.60;;
9445;SDS011;4761;49.490;10.908;2022-08-07T08:22:04;0.77;;;0.60;;
9445;SDS011;4761;49.490;10.908;2022-08-07T08:24:51;0.88;;;0.88;;
9445;SDS011;4761;49.490;10.908;2022-08-07T08:27:37;0.70;;;0.70;;
9445;SDS011;4761;49.490;10.908;2022-08-07T08:30:06;0.85;;;0.75;;
9445;SDS011;4761;49.490;10.908;2022-08-07T08:32:38;1.15;;;0.80;;
9445;SDS011;4761;49.490;10.908;2022-08-07T08:35:11;0.98;;;0.70;;
9445;SDS011;4761;49.490;10.908;2022-08-07T08:37:42;1.02;;;0.88;;
9445;SDS011;4761;49.490;10.908;2022-08-07T08:40:14;0.80;;;0.70;;
9445;SDS011;4761;49.490;10.908;2022-08-07T08:42:54;0.70;;;0.70;;
9445;SDS011;4761;49.490;10.908;2022-08-07T08:51:01;0.50;;;0.50;;
9445;SDS011;4761;49.490;10.908;2022-08-07T08:53:51;1.30;;;0.75;;
9445;SDS011;4761;49.490;10.908;2022-08-07T08:56:26;0.70;;;0.70;;
9445;SDS011;4761;49.490;10.908;2022-08-07T08:59:04;0.60;;;0.60;;
9445;SDS011;4761;49.490;10.908;2022-08-07T09:01:52;0.80;;;0.80;;
9445;SDS011;4761;49.490;10.908;2022-08-07T09:07:33;0.95;;;0.80;;
9445;SDS011;4761;49.490;10.908;2022-08-07T09:10:20;1.10;;;0.80;;
9445;SDS011;4761;49.490;10.908;2022-08-07T09:27:22;1.00;;;0.90;;
9445;SDS011;4761;49.490;10.908;2022-08-07T09:30:07;0.70;;;0.70;;
9445;SDS011;4761;49.490;10.908;2022-08-07T09:35:46;0.70;;;0.70;;
9445;SDS011;4761;49.490;10.908;2022-08-07T09:41:04;0.70;;;0.70;;
9445;SDS011;4761;49.490;10.908;2022-08-07T09:43:50;0.80;;;0.80;;
9445;SDS011;4761;49.490;10.908;2022-08-07T09:46:41;0.70;;;0.70;;
9445;SDS011;4761;49.490;10.908;2022-08-07T09:49:24;0.77;;;0.77;;
9445;SDS011;4761;49.490;10.908;2022-08-07T09:52:18;0.60;;;0.60;;
9445;SDS011;4761;49.490;10.908;2022-08-07T09:54:49;1.67;;;0.70;;
9445;SDS011;4761;49.490;10.908;2022-08-07T10:00:10;1.83;;;0.93;;
9445;SDS011;4761;49.490;10.908;2022-08-07T10:02:55;1.23;;;0.80;;
9445;SDS011;4761;49.490;10.908;2022-08-07T10:17:58;1.02;;;0.73;;
9445;SDS011;4761;49.490;10.908;2022-08-07T10:31:40;0.95;;;0.80;;
9445;SDS011;4761;49.490;10.908;2022-08-07T10:34:29;1.23;;;0.80;;
9445;SDS011;4761;49.490;10.908;2022-08-07T10:37:26;0.68;;;0.60;;
9445;SDS011;4761;49.490;10.908;2022-08-07T10:43:13;0.65;;;0.65;;
9445;SDS011;4761;49.490;10.908;2022-08-07T10:45:48;0.77;;;0.77;;
9445;SDS011;4761;49.490;10.908;2022-08-07T10:54:00;0.68;;;0.50;;
9445;SDS011;4761;49.490;10.908;2022-08-07T11:02:27;4.03;;;0.75;;
9445;SDS011;4761;49.490;10.908;2022-08-07T11:07:56;0.90;;;0.73;;
9445;SDS011;4761;49.490;10.908;2022-08-07T11:13:23;2.08;;;0.80;;
9445;SDS011;4761;49.490;10.908;2022-08-07T11:16:03;1.00;;;0.73;;
9445;SDS011;4761;49.490;10.908;2022-08-07T11:18:36;0.30;;;0.30;;
9445;SDS011;4761;49.490;10.908;2022-08-07T11:26:38;0.43;;;0.20;;
9445;SDS011;4761;49.490;10.908;2022-08-07T11:29:18;0.40;;;0.20;;
9445;SDS011;4761;49.490;10.908;2022-08-07T11:31:54;0.98;;;0.25;;
9445;SDS011;4761;49.490;10.908;2022-08-07T11:37:16;0.20;;;0.20;;
9445;SDS011;4761;49.490;10.908;2022-08-07T11:40:15;0.20;;;0.20;;
9445;SDS011;4761;49.490;10.908;2022-08-07T11:42:59;0.32;;;0.20;;
9445;SDS011;4761;49.490;10.908;2022-08-07T11:45:52;0.20;;;0.20;;
9445;SDS011;4761;49.490;10.908;2022-08-07T11:51:58;0.68;;;0.20;;
9445;SDS011;4761;49.490;10.908;2022-08-07T11:57:36;0.20;;;0.20;;
9445;SDS011;4761;49.490;10.908;2022-08-07T12:00:24;0.28;;;0.20;;
9445;SDS011;4761;49.490;10.908;2022-08-07T12:14:30;0.80;;;0.50;;
9445;SDS011;4761;49.490;10.908;2022-08-07T12:17:04;1.42;;;0.70;;
9445;SDS011;4761;49.490;10.908;2022-08-07T12:22:11;1.65;;;0.80;;
9445;SDS011;4761;49.490;10.908;2022-08-07T12:25:08;0.93;;;0.70;;
9445;SDS011;4761;49.490;10.908;2022-08-07T12:28:12;0.60;;;0.60;;
9445;SDS011;4761;49.490;10.908;2022-08-07T12:30:43;1.70;;;0.98;;
9445;SDS011;4761;49.490;10.908;2022-08-07T12:33:20;0.80;;;0.80;;
9445;SDS011;4761;49.490;10.908;2022-08-07T12:35:50;0.50;;;0.47;;
9445;SDS011;4761;49.490;10.908;2022-08-07T12:38:17;0.45;;;0.20;;
9445;SDS011;4761;49.490;10.908;2022-08-07T12:40:45;0.35;;;0.35;;
9445;SDS011;4761;49.490;10.908;2022-08-07T12:43:13;1.35;;;0.20;;
9445;SDS011;4761;49.490;10.908;2022-08-07T12:45:44;0.25;;;0.25;;
9445;SDS011;4761;49.490;10.908;2022-08-07T12:51:18;0.65;;;0.30;;
9445;SDS011;4761;49.490;10.908;2022-08-07T12:53:50;0.20;;;0.20;;
9445;SDS011;4761;49.490;10.908;2022-08-07T12:59:03;1.75;;;0.30;;
9445;SDS011;4761;49.490;10.908;2022-08-07T13:16:01;9.25;;;1.20;;
9445;SDS011;4761;49.490;10.908;2022-08-07T13:18:44;25.67;;;1.73;;
9445;SDS011;4761;49.490;10.908;2022-08-07T13:21:26;64.18;;;4.10;;
9445;SDS011;4761;49.490;10.908;2022-08-07T13:29:14;12.07;;;1.02;;
9445;SDS011;4761;49.490;10.908;2022-08-07T13:31:55;10.07;;;0.90;;
9445;SDS011;4761;49.490;10.908;2022-08-07T13:34:45;35.78;;;2.00;;
9445;SDS011;4761;49.490;10.908;2022-08-07T13:37:43;0.68;;;0.40;;
9445;SDS011;4761;49.490;10.908;2022-08-07T13:40:24;0.65;;;0.30;;
9445;SDS011;4761;49.490;10.908;2022-08-07T13:42:53;0.20;;;0.20;;
9445;SDS011;4761;49.490;10.908;2022-08-07T13:45:23;0.20;;;0.20;;
9445;SDS011;4761;49.490;10.908;2022-08-07T13:47:51;0.20;;;0.20;;
9445;SDS011;4761;49.490;10.908;2022-08-07T13:50:21;0.30;;;0.30;;
9445;SDS011;4761;49.490;10.908;2022-08-07T13:52:48;0.28;;;0.25;;
9445;SDS011;4761;49.490;10.908;2022-08-07T13:55:18;0.30;;;0.30;;
9445;SDS011;4761;49.490;10.908;2022-08-07T13:57:45;0.43;;;0.20;;
9445;SDS011;4761;49.490;10.908;2022-08-07T14:00:15;1.13;;;0.30;;
9445;SDS011;4761;49.490;10.908;2022-08-07T14:02:42;1.05;;;0.20;;
9445;SDS011;4761;49.490;10.908;2022-08-07T14:05:12;0.45;;;0.20;;
9445;SDS011;4761;49.490;10.908;2022-08-07T14:07:40;0.30;;;0.30;;
9445;SDS011;4761;49.490;10.908;2022-08-07T14:10:09;0.93;;;0.30;;
9445;SDS011;4761;49.490;10.908;2022-08-07T14:12:43;1.65;;;0.20;;
9445;SDS011;4761;49.490;10.908;2022-08-07T14:15:24;3.03;;;0.32;;
9445;SDS011;4761;49.490;10.908;2022-08-07T14:17:51;0.28;;;0.28;;
9445;SDS011;4761;49.490;10.908;2022-08-07T14:20:21;0.35;;;0.20;;
9445;SDS011;4761;49.490;10.908;2022-08-07T14:22:51;0.20;;;0.20;;
9445;SDS011;4761;49.490;10.908;2022-08-07T14:25:25;0.20;;;0.20;;
9445;SDS011;4761;49.490;10.908;2022-08-07T14:27:54;0.30;;;0.30;;
9445;SDS011;4761;49.490;10.908;2022-08-07T14:30:20;0.20;;;0.20;;
9445;SDS011;4761;49.490;10.908;2022-08-07T14:32:49;0.20;;;0.20;;
9445;SDS011;4761;49.490;10.908;2022-08-07T14:35:23;0.20;;;0.20;;
9445;SDS011;4761;49.490;10.908;2022-08-07T14:37:52;0.35;;;0.30;;
9445;SDS011;4761;49.490;10.908;2022-08-07T14:40:22;0.30;;;0.30;;
9445;SDS011;4761;49.490;10.908;2022-08-07T14:42:53;0.20;;;0.20;;
9445;SDS011;4761;49.490;10.908;2022-08-07T14:45:19;0.20;;;0.20;;
9445;SDS011;4761;49.490;10.908;2022-08-07T14:47:45;1.85;;;0.20;;
9445;SDS011;4761;49.490;10.908;2022-08-07T14:50:11;0.30;;;0.30;;
9445;SDS011;4761;49.490;10.908;2022-08-07T14:52:43;0.25;;;0.25;;
9445;SDS011;4761;49.490;10.908;2022-08-07T14:55:12;0.20;;;0.20;;
9445;SDS011;4761;49.490;10.908;2022-08-07T14:57:39;0.20;;;0.20;;
9445;SDS011;4761;49.490;10.908;2022-08-07T15:00:05;0.20;;;0.20;;
9445;SDS011;4761;49.490;10.908;2022-08-07T15:02:33;0.22;;;0.20;;
9445;SDS011;4761;49.490;10.908;2022-08-07T15:05:01;0.32;;;0.20;;
9445;SDS011;4761;49.490;10.908;2022-08-07T15:07:28;0.20;;;0.20;;
9445;SDS011;4761;49.490;10.908;2022-08-07T15:09:56;0.20;;;0.20;;
9445;SDS011;4761;49.490;10.908;2022-08-07T15:12:23;0.20;;;0.20;;
9445;SDS011;4761;49.490;10.908;2022-08-07T15:15:00;0.30;;;0.30;;
9445;SDS011;4761;49.490;10.908;2022-08-07T15:17:30;0.38;;;0.20;;
9445;SDS011;4761;49.490;10.908;2022-08-07T15:20:00;0.20;;;0.20;;
9445;SDS011;4761;49.490;10.908;2022-08-07T15:22:30;0.50;;;0.20;;
9445;SDS011;4761;49.490;10.908;2022-08-07T15:25:09;0.20;;;0.20;;
9445;SDS011;4761;49.490;10.908;2022-08-07T15:27:38;0.10;;;0.10;;
9445;SDS011;4761;49.490;10.908;2022-08-07T15:30:09;0.20;;;0.20;;
9445;SDS011;4761;49.490;10.908;2022-08-07T15:32:41;0.22;;;0.20;;
9445;SDS011;4761;49.490;10.908;2022-08-07T15:35:15;0.20;;;0.20;;
9445;SDS011;4761;49.490;10.908;2022-08-07T15:38:17;0.35;;;0.20;;
9445;SDS011;4761;49.490;10.908;2022-08-07T15:40:36;0.45;;;0.20;;
9445;SDS011;4761;49.490;10.908;2022-08-07T15:43:13;1.45;;;0.20;;
9445;SDS011;4761;49.490;10.908;2022-08-07T15:45:41;0.35;;;0.20;;
9445;SDS011;4761;49.490;10.908;2022-08-07T15:48:13;2.17;;;0.20;;
9445;SDS011;4761;49.490;10.908;2022-08-07T15:50:47;0.20;;;0.20;;
9445;SDS011;4761;49.490;10.908;2022-08-07T15:53:18;0.63;;;0.20;;
9445;SDS011;4761;49.490;10.908;2022-08-07T15:56:11;0.30;;;0.22;;
9445;SDS011;4761;49.490;10.908;2022-08-07T15:58:40;0.20;;;0.20;;
9445;SDS011;4761;49.490;10.908;2022-08-07T16:01:18;0.45;;;0.28;;
9445;SDS011;4761;49.490;10.908;2022-08-07T16:03:48;1.65;;;0.20;;
9445;SDS011;4761;49.490;10.908;2022-08-07T16:06:28;1.38;;;0.20;;
9445;SDS011;4761;49.490;10.908;2022-08-07T16:08:57;1.88;;;0.20;;
9445;SDS011;4761;49.490;10.908;2022-08-07T16:20:25;0.30;;;0.20;;
9445;SDS011;4761;49.490;10.908;2022-08-07T16:23:16;0.20;;;0.20;;
9445;SDS011;4761;49.490;10.908;2022-08-07T16:34:15;0.20;;;0.20;;
9445;SDS011;4761;49.490;10.908;2022-08-07T16:51:27;0.20;;;0.20;;
9445;SDS011;4761;49.490;10.908;2022-08-07T16:59:17;0.20;;;0.20;;
9445;SDS011;4761;49.490;10.908;2022-08-07T17:02:14;0.20;;;0.20;;
9445;SDS011;4761;49.490;10.908;2022-08-07T17:05:09;0.13;;;0.13;;
9445;SDS011;4761;49.490;10.908;2022-08-07T17:07:55;0.15;;;0.15;;
9445;SDS011;4761;49.490;10.908;2022-08-07T17:10:28;0.20;;;0.20;;
9445;SDS011;4761;49.490;10.908;2022-08-07T17:13:03;0.20;;;0.20;;
9445;SDS011;4761;49.490;10.908;2022-08-07T17:20:53;0.17;;;0.15;;
9445;SDS011;4761;49.490;10.908;2022-08-07T17:23:39;0.20;;;0.20;;
9445;SDS011;4761;49.490;10.908;2022-08-07T17:34:30;0.10;;;0.10;;
9445;SDS011;4761;49.490;10.908;2022-08-07T17:37:00;0.52;;;0.20;;
9445;SDS011;4761;49.490;10.908;2022-08-07T17:39:34;0.20;;;0.20;;
9445;SDS011;4761;49.490;10.908;2022-08-07T17:42:18;0.20;;;0.20;;
9445;SDS011;4761;49.490;10.908;2022-08-07T17:44:58;0.20;;;0.20;;
9445;SDS011;4761;49.490;10.908;2022-08-07T17:49:58;0.52;;;0.45;;
9445;SDS011;4761;49.490;10.908;2022-08-07T17:52:35;0.55;;;0.50;;
9445;SDS011;4761;49.490;10.908;2022-08-07T17:55:12;0.50;;;0.50;;
9445;SDS011;4761;49.490;10.908;2022-08-07T17:57:47;0.80;;;0.80;;
9445;SDS011;4761;49.490;10.908;2022-08-07T18:00:19;0.85;;;0.80;;
9445;SDS011;4761;49.490;10.908;2022-08-07T18:02:54;1.00;;;0.90;;
9445;SDS011;4761;49.490;10.908;2022-08-07T18:08:26;1.38;;;1.27;;
9445;SDS011;4761;49.490;10.908;2022-08-07T18:16:46;1.20;;;1.13;;
9445;SDS011;4761;49.490;10.908;2022-08-07T18:19:14;1.38;;;1.27;;
9445;SDS011;4761;49.490;10.908;2022-08-07T18:24:46;1.40;;;1.30;;
9445;SDS011;4761;49.490;10.908;2022-08-07T18:27:23;1.50;;;1.40;;
9445;SDS011;4761;49.490;10.908;2022-08-07T18:30:04;1.63;;;1.52;;
9445;SDS011;4761;49.490;10.908;2022-08-07T18:46:55;1.40;;;1.30;;
9445;SDS011;4761;49.490;10.908;2022-08-07T18:49:31;1.50;;;1.40;;
9445;SDS011;4761;49.490;10.908;2022-08-07T19:00:11;1.50;;;1.38;;
9445;SDS011;4761;49.490;10.908;2022-08-07T19:02:43;1.67;;;1.38;;
9445;SDS011;4761;49.490;10.908;2022-08-07T19:05:35;1.30;;;1.20;;
9445;SDS011;4761;49.490;10.908;2022-08-07T19:10:46;1.90;;;1.15;;
9445;SDS011;4761;49.490;10.908;2022-08-07T19:13:18;0.90;;;0.90;;
9445;SDS011;4761;49.490;10.908;2022-08-07T19:19:10;1.20;;;1.10;;
9445;SDS011;4761;49.490;10.908;2022-08-07T19:21:52;1.10;;;1.00;;
9445;SDS011;4761;49.490;10.908;2022-08-07T19:24:25;1.20;;;1.10;;